Time;durP1;ratioP1;P1;durP2;ratioP2;P2;SDS_P1;SDS_P2;PMS_P1;PMS_P2;Temp;Humidity;BMP_temperature;BMP_pressure;BME280_temperature;BME280_humidity;BME280_pressure;Samples;Min_cycle;Max_cycle;Signal;HPM_P1;HPM_P2
2021/08/14 00:01:20;;;;;;;14.10;10.63;;;21.90;99.90;;;;;;2603557;46;20903;31
2021/08/14 00:03:51;;;;;;;12.85;9.95;;;21.90;99.90;;;;;;2603625;46;20097;31
2021/08/14 00:06:22;;;;;;;11.55;9.80;;;21.90;99.90;;;;;;2603462;54;20034;31
2021/08/14 00:08:53;;;;;;;12.40;10.05;;;21.90;99.90;;;;;;2603473;54;20034;31
2021/08/14 00:11:24;;;;;;;16.58;11.02;;;21.90;99.90;;;;;;2603450;54;20846;31
2021/08/14 00:13:55;;;;;;;14.05;10.70;;;21.90;99.90;;;;;;2603538;46;20828;31
2021/08/14 00:16:27;;;;;;;12.93;9.52;;;21.80;99.90;;;;;;2603669;46;20026;31
2021/08/14 00:18:58;;;;;;;13.20;10.20;;;21.80;99.90;;;;;;2603589;46;20038;31
2021/08/14 00:21:30;;;;;;;17.40;10.85;;;21.80;99.90;;;;;;2603475;47;20057;31
2021/08/14 00:24:01;;;;;;;15.07;11.98;;;21.80;99.90;;;;;;2603528;54;20066;31
2021/08/14 00:26:32;;;;;;;15.33;10.57;;;21.90;99.90;;;;;;2603395;54;20031;31
2021/08/14 00:29:03;;;;;;;16.00;11.63;;;21.90;99.90;;;;;;2603403;54;20843;31
2021/08/14 00:31:34;;;;;;;15.13;10.60;;;21.80;99.90;;;;;;2603663;46;20884;31
2021/08/14 00:34:05;;;;;;;16.08;11.93;;;21.80;99.90;;;;;;2603849;46;20877;31
2021/08/14 00:36:36;;;;;;;15.40;13.00;;;21.80;99.90;;;;;;2603621;46;20832;31
2021/08/14 00:39:07;;;;;;;21.77;12.90;;;21.80;99.90;;;;;;2603637;46;20112;31
2021/08/14 00:41:38;;;;;;;17.95;11.35;;;21.80;99.90;;;;;;2603574;46;20113;31
2021/08/14 00:44:09;;;;;;;19.95;12.13;;;21.70;99.90;;;;;;2603567;46;20053;31
2021/08/14 00:46:40;;;;;;;19.40;11.65;;;21.60;99.90;;;;;;2603525;46;20030;31
2021/08/14 00:49:11;;;;;;;15.30;11.65;;;21.60;99.90;;;;;;2603583;46;20046;31
2021/08/14 00:51:42;;;;;;;15.80;10.95;;;21.60;99.90;;;;;;2603508;46;20952;31
2021/08/14 00:54:13;;;;;;;14.20;10.68;;;21.60;99.90;;;;;;2603392;46;20874;31
2021/08/14 00:56:44;;;;;;;14.88;11.55;;;21.50;99.90;;;;;;2603472;46;20164;31
2021/08/14 00:59:15;;;;;;;15.20;11.52;;;21.50;99.90;;;;;;2603449;46;20796;31
2021/08/14 01:01:46;;;;;;;14.70;11.20;;;21.50;99.90;;;;;;2603447;46;20026;31
2021/08/14 01:04:17;;;;;;;18.65;14.10;;;21.50;99.90;;;;;;2603383;46;20085;31
2021/08/14 01:06:49;;;;;;;15.85;12.27;;;21.40;99.90;;;;;;2603416;46;20034;31
2021/08/14 01:09:20;;;;;;;16.13;11.67;;;21.30;99.90;;;;;;2603463;46;20049;31
2021/08/14 01:11:51;;;;;;;15.35;11.43;;;21.30;99.90;;;;;;2603316;54;20027;31
2021/08/14 01:14:22;;;;;;;20.00;10.17;;;21.20;99.90;;;;;;2603481;46;20089;31
2021/08/14 01:16:53;;;;;;;17.35;13.15;;;21.20;99.90;;;;;;2603501;46;20916;31
2021/08/14 01:19:24;;;;;;;18.20;11.90;;;21.10;99.90;;;;;;2603290;54;20787;31
2021/08/14 01:21:55;;;;;;;15.85;11.45;;;21.00;99.90;;;;;;2603351;46;20038;31
2021/08/14 01:24:26;;;;;;;15.00;10.63;;;20.90;99.90;;;;;;2603441;46;20031;31
2021/08/14 01:26:58;;;;;;;14.85;11.50;;;20.90;99.90;;;;;;2603286;46;20034;31
2021/08/14 01:29:29;;;;;;;17.58;12.88;;;20.90;99.90;;;;;;2603204;47;25051;31
2021/08/14 01:32:01;;;;;;;15.48;11.93;;;20.90;99.90;;;;;;2603696;46;20989;31
2021/08/14 01:37:16;;;;;;;18.80;11.88;;;20.80;99.90;;;;;;2646083;53;20376;31
2021/08/14 01:39:47;;;;;;;18.63;11.55;;;20.70;99.90;;;;;;2607071;54;20048;31
2021/08/14 01:42:18;;;;;;;16.20;11.05;;;20.70;99.90;;;;;;2607391;46;20123;31
2021/08/14 01:44:50;;;;;;;16.27;11.35;;;20.70;99.90;;;;;;2607384;46;20915;31
2021/08/14 01:47:21;;;;;;;15.10;11.85;;;20.70;99.90;;;;;;2607208;54;20038;31
2021/08/14 01:49:52;;;;;;;16.53;12.10;;;20.60;99.90;;;;;;2607477;46;20104;31
2021/08/14 01:52:24;;;;;;;17.48;11.85;;;20.50;99.90;;;;;;2607340;46;20939;31
2021/08/14 01:54:55;;;;;;;20.43;11.33;;;20.50;99.90;;;;;;2607323;46;20866;31
2021/08/14 01:57:26;;;;;;;16.02;12.05;;;20.50;99.90;;;;;;2607225;46;20305;31
2021/08/14 01:59:57;;;;;;;14.93;11.18;;;20.50;99.90;;;;;;2607343;46;20027;31
2021/08/14 02:02:29;;;;;;;18.20;12.18;;;20.40;99.90;;;;;;2607346;46;20089;31
2021/08/14 02:05:00;;;;;;;17.88;11.80;;;20.40;99.90;;;;;;2607228;46;20129;31
2021/08/14 02:07:31;;;;;;;19.23;13.38;;;20.40;99.90;;;;;;2607291;46;20810;31
2021/08/14 02:10:02;;;;;;;18.00;13.32;;;20.30;99.90;;;;;;2607715;46;20082;31
2021/08/14 02:12:33;;;;;;;18.27;13.50;;;20.30;99.90;;;;;;2607249;46;20034;31
2021/08/14 02:15:04;;;;;;;21.02;11.40;;;20.30;99.90;;;;;;2607185;46;20034;31
2021/08/14 02:17:35;;;;;;;12.73;10.67;;;20.30;99.90;;;;;;2607268;54;20097;31
2021/08/14 02:20:06;;;;;;;17.27;10.90;;;20.30;99.90;;;;;;2607177;46;20711;31
2021/08/14 02:22:37;;;;;;;16.45;11.35;;;20.30;99.90;;;;;;2607560;46;20037;31
2021/08/14 02:25:08;;;;;;;13.18;10.20;;;20.30;99.90;;;;;;2607141;46;20042;31
2021/08/14 02:27:39;;;;;;;16.70;11.45;;;20.30;99.90;;;;;;2607195;46;20092;31
2021/08/14 02:30:10;;;;;;;17.65;12.05;;;20.40;99.90;;;;;;2607193;46;20089;31
2021/08/14 02:32:41;;;;;;;19.27;11.80;;;20.40;99.90;;;;;;2607246;46;20137;31
2021/08/14 02:35:12;;;;;;;22.65;13.00;;;20.40;99.90;;;;;;2607083;46;20026;31
2021/08/14 02:37:43;;;;;;;18.38;11.63;;;20.40;99.90;;;;;;2607510;46;20764;31
2021/08/14 02:40:14;;;;;;;35.75;15.65;;;20.50;99.90;;;;;;2607205;46;20034;31
2021/08/14 02:42:45;;;;;;;23.65;13.30;;;20.40;99.90;;;;;;2607210;46;20033;31
2021/08/14 02:45:16;;;;;;;16.35;12.20;;;20.40;99.90;;;;;;2607213;46;20781;31
2021/08/14 02:47:47;;;;;;;16.55;12.60;;;20.40;99.90;;;;;;2604882;46;20089;31
2021/08/14 02:50:18;;;;;;;20.80;14.10;;;20.40;99.90;;;;;;2603594;46;20046;31
2021/08/14 02:52:49;;;;;;;17.15;12.77;;;20.40;99.90;;;;;;2603517;47;20907;31
2021/08/14 02:55:21;;;;;;;19.95;14.85;;;20.40;99.90;;;;;;2603610;46;19943;31
2021/08/14 02:57:52;;;;;;;14.48;12.70;;;20.40;99.90;;;;;;2603481;54;20034;31
2021/08/14 03:00:23;;;;;;;18.93;12.27;;;20.30;99.90;;;;;;2603594;46;20026;31
2021/08/14 03:02:54;;;;;;;16.70;13.93;;;20.40;99.90;;;;;;2603655;46;20031;31
2021/08/14 03:05:26;;;;;;;16.35;11.65;;;20.30;99.90;;;;;;2603907;46;20017;31
2021/08/14 03:07:57;;;;;;;13.83;11.67;;;20.30;99.90;;;;;;2603461;46;20049;31
2021/08/14 03:10:28;;;;;;;14.20;11.68;;;20.30;99.90;;;;;;2603538;46;20026;31
2021/08/14 03:12:59;;;;;;;16.90;13.70;;;20.30;99.90;;;;;;2603531;46;20125;31
2021/08/14 03:15:30;;;;;;;15.27;11.68;;;20.30;99.90;;;;;;2603420;46;20128;31
2021/08/14 03:18:01;;;;;;;16.65;12.00;;;20.30;99.90;;;;;;2603492;46;20098;31
2021/08/14 03:20:32;;;;;;;17.40;12.70;;;20.30;99.90;;;;;;2603662;46;20026;31
2021/08/14 03:23:03;;;;;;;13.10;11.38;;;20.30;99.90;;;;;;2603696;46;20068;31
2021/08/14 03:25:34;;;;;;;18.38;13.25;;;20.20;99.90;;;;;;2603465;46;20030;31
2021/08/14 03:28:05;;;;;;;15.40;11.73;;;20.20;99.90;;;;;;2603428;46;20887;31
2021/08/14 03:30:36;;;;;;;17.52;12.32;;;20.20;99.90;;;;;;2603434;46;20034;31
2021/08/14 03:33:07;;;;;;;17.90;12.20;;;20.20;99.90;;;;;;2603428;46;20035;31
2021/08/14 03:35:38;;;;;;;19.45;13.35;;;20.20;99.90;;;;;;2603396;46;20109;31
2021/08/14 03:38:09;;;;;;;14.98;11.35;;;20.20;99.90;;;;;;2603294;46;20855;31
2021/08/14 03:40:40;;;;;;;17.03;12.87;;;20.10;99.90;;;;;;2603315;46;20057;31
2021/08/14 03:43:11;;;;;;;14.13;12.30;;;20.10;99.90;;;;;;2603432;46;20763;31
2021/08/14 03:45:42;;;;;;;15.88;11.93;;;20.10;99.90;;;;;;2603374;46;20861;31
2021/08/14 03:48:13;;;;;;;18.15;12.40;;;20.10;99.90;;;;;;2603281;54;20034;31
2021/08/14 03:50:44;;;;;;;15.68;12.25;;;20.10;99.90;;;;;;2603374;47;20820;31
2021/08/14 03:53:15;;;;;;;20.55;12.73;;;20.10;99.90;;;;;;2603302;46;20816;31
2021/08/14 03:55:46;;;;;;;16.27;12.95;;;20.10;99.90;;;;;;2603302;46;20031;31
2021/08/14 03:58:17;;;;;;;18.20;12.27;;;20.10;99.90;;;;;;2603200;46;20772;31
2021/08/14 04:00:48;;;;;;;14.80;12.50;;;20.10;99.90;;;;;;2603327;47;20077;31
2021/08/14 04:03:19;;;;;;;20.30;13.68;;;20.10;99.90;;;;;;2603252;46;20844;31
2021/08/14 04:05:50;;;;;;;15.30;12.75;;;20.10;99.90;;;;;;2603305;46;20098;31
2021/08/14 04:08:21;;;;;;;15.13;12.15;;;20.00;99.90;;;;;;2603267;46;21189;31
2021/08/14 04:10:52;;;;;;;17.25;13.70;;;20.00;99.90;;;;;;2603344;46;20892;31
2021/08/14 04:13:23;;;;;;;18.75;12.50;;;20.00;99.90;;;;;;2603251;46;20090;31
2021/08/14 04:15:54;;;;;;;16.90;13.00;;;20.00;99.90;;;;;;2603234;46;20867;31
2021/08/14 04:18:25;;;;;;;15.25;12.75;;;20.00;99.90;;;;;;2603210;46;20053;31
2021/08/14 04:20:56;;;;;;;14.88;11.65;;;20.00;99.90;;;;;;2603214;47;20038;31
2021/08/14 04:23:27;;;;;;;14.00;11.40;;;20.00;99.90;;;;;;2603228;46;20034;31
2021/08/14 04:25:58;;;;;;;17.27;13.20;;;19.90;99.90;;;;;;2603568;46;20084;31
2021/08/14 04:28:29;;;;;;;14.88;13.27;;;20.00;99.90;;;;;;2603200;46;20042;31
2021/08/14 04:31:00;;;;;;;18.58;14.00;;;20.00;99.90;;;;;;2701993;39;20398;31
2021/08/14 04:33:31;;;;;;;17.73;13.38;;;20.00;99.90;;;;;;2603164;46;20856;31
2021/08/14 04:36:02;;;;;;;17.38;13.68;;;20.00;99.90;;;;;;2603081;47;20053;31
2021/08/14 04:38:33;;;;;;;18.48;13.00;;;19.90;99.90;;;;;;2603193;46;20030;31
2021/08/14 04:41:04;;;;;;;16.95;12.95;;;19.90;99.90;;;;;;2603246;46;20046;31
2021/08/14 04:43:36;;;;;;;19.83;13.13;;;19.90;99.90;;;;;;2603045;47;20056;31
2021/08/14 04:46:07;;;;;;;16.65;13.00;;;20.00;99.90;;;;;;2603244;46;20085;31
2021/08/14 04:48:39;;;;;;;23.23;14.98;;;19.90;99.90;;;;;;2603474;46;20906;31
2021/08/14 04:51:10;;;;;;;17.10;13.07;;;20.00;99.90;;;;;;2603441;46;20847;31
2021/08/14 04:53:41;;;;;;;16.30;13.00;;;20.00;99.90;;;;;;2603214;46;20033;31
2021/08/14 04:56:12;;;;;;;19.58;13.02;;;20.10;99.90;;;;;;2603001;46;20039;31
2021/08/14 04:58:43;;;;;;;16.33;12.98;;;20.30;99.90;;;;;;2603100;46;20109;31
2021/08/14 05:01:14;;;;;;;20.50;13.02;;;20.40;99.90;;;;;;2603393;46;19993;31
2021/08/14 05:03:45;;;;;;;16.25;13.07;;;20.50;99.90;;;;;;2603446;46;20143;31
2021/08/14 05:06:16;;;;;;;15.70;12.38;;;20.60;99.90;;;;;;2603517;46;20915;31
2021/08/14 05:08:47;;;;;;;17.40;12.18;;;20.70;99.90;;;;;;2603077;46;20824;31
2021/08/14 05:11:18;;;;;;;15.35;11.85;;;20.80;99.90;;;;;;2603299;46;20903;31
2021/08/14 05:13:49;;;;;;;15.18;12.10;;;20.90;99.90;;;;;;2603072;47;20112;31
2021/08/14 05:16:24;;;;;;;18.35;11.40;;;20.90;99.90;;;;;;2603051;46;20061;31
2021/08/14 05:18:55;;;;;;;15.27;11.90;;;21.00;99.90;;;;;;2603201;46;20050;31
2021/08/14 05:21:26;;;;;;;16.07;11.20;;;21.00;99.90;;;;;;2602973;47;20034;31
2021/08/14 05:23:57;;;;;;;14.00;12.30;;;21.00;99.90;;;;;;2602996;54;20053;31
2021/08/14 05:26:28;;;;;;;16.10;11.43;;;21.00;99.90;;;;;;2603336;46;20393;31
2021/08/14 05:28:59;;;;;;;13.60;11.48;;;21.00;99.90;;;;;;2602994;46;20094;31
2021/08/14 05:31:30;;;;;;;14.40;11.82;;;21.10;99.90;;;;;;2602966;54;20840;31
2021/08/14 05:34:02;;;;;;;17.35;12.15;;;21.20;99.90;;;;;;2602946;47;20050;31
2021/08/14 05:36:33;;;;;;;15.02;10.85;;;21.30;99.90;;;;;;2603083;47;20054;31
2021/08/14 05:39:04;;;;;;;12.68;11.25;;;21.50;99.90;;;;;;2603040;47;20057;31
2021/08/14 05:41:40;;;;;;;13.82;11.88;;;21.80;99.90;;;;;;2602329;47;20794;31
2021/08/14 05:44:10;;;;;;;14.30;11.63;;;22.00;99.90;;;;;;2603062;47;20030;31
2021/08/14 05:46:41;;;;;;;12.50;10.68;;;22.20;99.90;;;;;;2602998;47;20856;31
2021/08/14 05:49:12;;;;;;;18.77;12.05;;;22.40;99.90;;;;;;2602961;54;20029;31
2021/08/14 05:51:43;;;;;;;17.70;12.02;;;22.70;99.90;;;;;;2603240;47;20033;31
2021/08/14 05:54:18;;;;;;;16.60;11.52;;;22.80;99.90;;;;;;2602922;47;20034;31
2021/08/14 05:56:49;;;;;;;16.75;11.75;;;22.90;99.90;;;;;;2602831;54;20094;31
2021/08/14 05:59:20;;;;;;;17.00;12.35;;;22.90;99.90;;;;;;2602871;47;20082;31
2021/08/14 06:01:51;;;;;;;17.63;13.00;;;23.00;99.90;;;;;;2602929;47;20875;31
2021/08/14 06:04:22;;;;;;;16.20;13.10;;;22.90;99.90;;;;;;2602868;47;20038;31
2021/08/14 06:06:53;;;;;;;13.07;11.70;;;23.00;99.90;;;;;;2603233;47;20069;31
2021/08/14 06:09:24;;;;;;;15.77;11.98;;;23.20;99.90;;;;;;2603133;47;20767;31
2021/08/14 06:11:55;;;;;;;13.48;11.57;;;23.50;99.90;;;;;;2603170;47;20813;31
2021/08/14 06:14:26;;;;;;;15.75;11.13;;;23.80;99.90;;;;;;2602866;47;20900;31
2021/08/14 06:16:57;;;;;;;12.98;11.55;;;24.00;99.90;;;;;;2602773;54;20077;31
2021/08/14 06:19:28;;;;;;;18.45;12.48;;;24.30;99.90;;;;;;2603232;47;20057;31
2021/08/14 06:21:59;;;;;;;16.10;11.40;;;24.40;99.90;;;;;;2602947;54;20089;31
2021/08/14 06:24:30;;;;;;;15.77;11.57;;;24.80;99.90;;;;;;2603764;54;20876;31
2021/08/14 06:27:01;;;;;;;15.90;11.93;;;25.00;99.90;;;;;;2603801;46;20080;31
2021/08/14 06:29:32;;;;;;;13.40;11.68;;;25.30;99.90;;;;;;2603609;46;20118;31
2021/08/14 06:32:03;;;;;;;16.45;11.60;;;25.50;99.90;;;;;;2603770;46;20038;31
2021/08/14 06:34:34;;;;;;;15.18;12.25;;;25.70;99.90;;;;;;2603566;54;20121;31
2021/08/14 06:37:05;;;;;;;13.88;11.27;;;25.80;99.90;;;;;;2603439;46;20104;31
2021/08/14 06:39:37;;;;;;;19.90;11.68;;;25.90;99.90;;;;;;2603689;46;20026;31
2021/08/14 06:42:08;;;;;;;13.80;12.18;;;26.00;99.90;;;;;;2603625;46;20093;31
2021/08/14 06:44:39;;;;;;;13.30;11.45;;;26.20;99.90;;;;;;2603750;46;20104;31
2021/08/14 06:47:10;;;;;;;12.88;11.43;;;26.30;99.90;;;;;;2603097;46;20046;31
2021/08/14 06:49:41;;;;;;;15.30;10.77;;;26.50;99.90;;;;;;2603642;46;20090;31
2021/08/14 06:52:12;;;;;;;12.50;10.80;;;26.80;99.90;;;;;;2603448;54;20850;31
2021/08/14 06:54:43;;;;;;;14.68;10.70;;;27.00;99.90;;;;;;2603493;46;20093;31
2021/08/14 06:57:14;;;;;;;21.70;11.57;;;27.20;99.90;;;;;;2603467;47;20110;31
2021/08/14 06:59:45;;;;;;;15.52;10.65;;;27.30;99.90;;;;;;2603294;46;20093;31
2021/08/14 07:02:16;;;;;;;14.07;11.40;;;27.50;99.90;;;;;;2603290;46;20916;31
2021/08/14 07:04:47;;;;;;;18.00;11.30;;;27.60;99.90;;;;;;2603402;46;20038;31
2021/08/14 07:07:18;;;;;;;12.98;10.27;;;27.70;99.90;;;;;;2603430;46;20797;31
2021/08/14 07:09:49;;;;;;;22.65;11.30;;;28.00;99.90;;;;;;2603240;46;20049;31
2021/08/14 07:12:20;;;;;;;11.45;9.77;;;28.00;99.90;;;;;;2603422;46;20030;31
2021/08/14 07:14:51;;;;;;;12.85;9.88;;;28.10;99.90;;;;;;2603405;54;20941;31
2021/08/14 07:17:22;;;;;;;11.10;9.75;;;28.20;99.90;;;;;;2603754;46;20086;31
2021/08/14 07:19:53;;;;;;;18.20;10.45;;;28.40;99.90;;;;;;2603452;46;20987;31
2021/08/14 07:22:24;;;;;;;14.20;9.70;;;28.60;99.90;;;;;;2603445;54;20038;31
2021/08/14 07:24:55;;;;;;;12.32;9.32;;;28.70;99.90;;;;;;2603349;46;20899;31
2021/08/14 07:27:26;;;;;;;48.75;11.95;;;28.80;99.90;;;;;;2603412;46;20030;31
2021/08/14 07:29:57;;;;;;;12.73;9.57;;;29.00;99.90;;;;;;2603386;46;24136;31
2021/08/14 07:32:28;;;;;;;12.40;9.55;;;29.10;99.90;;;;;;2603343;47;20030;31
2021/08/14 07:34:59;;;;;;;9.70;8.70;;;29.30;99.90;;;;;;2603296;47;20097;31
2021/08/14 07:37:30;;;;;;;11.55;9.48;;;29.30;99.90;;;;;;2603279;47;20840;31
2021/08/14 07:40:01;;;;;;;9.70;8.75;;;29.40;99.90;;;;;;2603237;54;20053;31
2021/08/14 07:42:32;;;;;;;12.63;8.27;;;29.50;99.90;;;;;;2603400;54;20064;31
2021/08/14 07:45:03;;;;;;;12.73;8.70;;;29.50;99.90;;;;;;2603290;46;20026;31
2021/08/14 07:47:35;;;;;;;11.25;8.50;;;29.70;99.90;;;;;;2603381;46;20911;31
2021/08/14 07:50:06;;;;;;;8.90;8.00;;;29.60;99.90;;;;;;2603328;54;20026;31
2021/08/14 07:52:37;;;;;;;9.48;8.13;;;29.80;99.90;;;;;;2603399;46;20107;31
2021/08/14 07:55:08;;;;;;;9.33;8.27;;;29.80;99.90;;;;;;2603254;54;20031;31
2021/08/14 07:57:42;;;;;;;10.02;8.02;;;29.70;99.90;;;;;;2603270;46;20918;31
2021/08/14 08:00:15;;;;;;;9.35;7.93;;;29.80;99.90;;;;;;2603262;54;20049;31
2021/08/14 08:02:46;;;;;;;14.57;7.30;;;29.80;99.90;;;;;;2603218;54;20027;31
2021/08/14 08:05:18;;;;;;;10.93;7.47;;;29.80;99.90;;;;;;2603277;54;20050;31
2021/08/14 08:07:49;;;;;;;10.13;7.15;;;29.90;99.90;;;;;;2603194;47;20026;31
2021/08/14 08:10:20;;;;;;;9.13;7.00;;;30.00;99.90;;;;;;2603263;46;20827;31
2021/08/14 08:12:51;;;;;;;7.50;6.43;;;30.10;99.90;;;;;;2603204;46;20031;31
2021/08/14 08:15:24;;;;;;;7.97;5.90;;;30.30;99.90;;;;;;2603231;46;21091;31
2021/08/14 08:17:55;;;;;;;8.30;6.10;;;30.30;99.90;;;;;;2603254;46;20815;31
2021/08/14 08:20:26;;;;;;;8.83;6.03;;;30.40;99.90;;;;;;2603161;46;20033;31
2021/08/14 08:22:57;;;;;;;7.55;6.20;;;30.40;99.90;;;;;;2603168;54;20090;31
2021/08/14 08:25:28;;;;;;;9.50;6.50;;;30.50;99.90;;;;;;2603104;54;20060;31
2021/08/14 08:28:02;;;;;;;9.15;6.30;;;30.60;99.90;;;;;;2603129;46;20897;31
2021/08/14 08:30:33;;;;;;;7.45;6.50;;;30.70;99.90;;;;;;2603110;46;20027;31
2021/08/14 08:33:04;;;;;;;8.93;5.72;;;30.90;99.90;;;;;;2603205;47;20030;31
2021/08/14 08:35:35;;;;;;;6.85;6.15;;;31.10;99.90;;;;;;2603182;46;20962;31
2021/08/14 08:38:06;;;;;;;6.15;5.55;;;31.10;99.90;;;;;;2603072;46;20890;31
2021/08/14 08:40:38;;;;;;;9.55;5.55;;;31.10;99.90;;;;;;2603093;47;20850;31
2021/08/14 08:43:09;;;;;;;6.70;5.67;;;31.30;99.90;;;;;;2603078;54;20093;31
2021/08/14 08:45:40;;;;;;;7.77;5.57;;;31.30;99.90;;;;;;2602892;46;20125;31
2021/08/14 08:48:11;;;;;;;8.45;5.82;;;31.40;99.90;;;;;;2603026;46;20026;31
2021/08/14 08:50:42;;;;;;;7.82;5.57;;;31.50;99.90;;;;;;2602960;46;20038;31
2021/08/14 08:53:13;;;;;;;7.43;5.78;;;31.70;99.90;;;;;;2603002;46;20854;31
2021/08/14 08:55:44;;;;;;;7.00;5.93;;;31.90;99.90;;;;;;2603115;46;20925;31
2021/08/14 08:58:15;;;;;;;7.97;5.93;;;31.90;99.90;;;;;;2602979;54;20052;31
2021/08/14 09:00:46;;;;;;;9.25;6.20;;;31.90;99.90;;;;;;2603199;46;20077;31
2021/08/14 09:03:18;;;;;;;16.63;6.13;;;31.90;99.80;;;;;;2603101;47;20114;31
2021/08/14 09:05:52;;;;;;;11.30;5.78;;;31.80;99.70;;;;;;2603118;46;20042;31
2021/08/14 09:08:23;;;;;;;6.90;5.53;;;31.50;99.40;;;;;;2602994;46;20819;31
2021/08/14 09:11:11;;;;;;;8.95;5.70;;;31.30;99.40;;;;;;2603139;46;20798;31
2021/08/14 09:14:11;;;;;;;7.35;6.50;;;31.00;99.50;;;;;;2603114;47;20816;31
2021/08/14 09:16:42;;;;;;;11.45;7.03;;;30.70;99.70;;;;;;2603056;46;20030;31
2021/08/14 09:19:21;;;;;;;8.40;5.85;;;30.50;99.90;;;;;;2602886;54;20030;31
2021/08/14 09:21:52;;;;;;;6.15;5.40;;;30.40;99.90;;;;;;2602962;54;20884;31
2021/08/14 09:24:39;;;;;;;7.00;5.75;;;30.50;99.90;;;;;;2602941;54;20038;31
2021/08/14 09:27:11;;;;;;;9.52;6.43;;;30.60;99.90;;;;;;2603255;46;20109;31
2021/08/14 09:29:43;;;;;;;8.95;5.75;;;30.60;99.90;;;;;;2602987;47;20034;31
2021/08/14 09:32:15;;;;;;;9.48;7.07;;;30.60;99.90;;;;;;2602884;54;20090;31
2021/08/14 09:34:49;;;;;;;26.75;7.75;;;30.80;99.90;;;;;;2602816;54;20038;31
2021/08/14 09:37:21;;;;;;;11.02;5.88;;;30.90;99.90;;;;;;2602781;54;20038;31
2021/08/14 09:40:00;;;;;;;6.93;6.10;;;30.90;99.90;;;;;;2603072;47;20089;31
2021/08/14 09:42:32;;;;;;;9.23;6.18;;;30.80;99.90;;;;;;2603109;47;20899;31
2021/08/14 09:45:13;;;;;;;6.13;5.43;;;30.50;99.90;;;;;;2602848;47;20086;31
2021/08/14 09:47:49;;;;;;;9.85;6.65;;;30.20;99.90;;;;;;2602867;47;20030;31
2021/08/14 09:50:34;;;;;;;9.85;6.20;;;30.00;99.90;;;;;;2602780;47;20030;31
2021/08/14 09:53:12;;;;;;;10.95;6.85;;;29.90;99.90;;;;;;2602817;47;20809;31
2021/08/14 09:55:45;;;;;;;7.28;5.75;;;29.90;99.90;;;;;;2603164;47;20097;31
2021/08/14 09:58:17;;;;;;;7.45;6.10;;;29.70;99.90;;;;;;2603300;47;20908;31
2021/08/14 10:00:52;;;;;;;28.05;7.93;;;29.60;99.90;;;;;;2602973;46;20120;31
2021/08/14 10:03:23;;;;;;;8.77;6.03;;;29.70;99.90;;;;;;2603652;54;20902;31
2021/08/14 10:05:54;;;;;;;7.83;6.00;;;29.60;99.90;;;;;;2603562;46;20026;31
2021/08/14 10:08:26;;;;;;;8.82;6.95;;;29.70;99.90;;;;;;2603682;46;20903;31
2021/08/14 10:10:57;;;;;;;7.50;6.65;;;29.80;99.90;;;;;;2603600;46;20037;31
2021/08/14 10:13:29;;;;;;;11.35;7.70;;;29.80;99.90;;;;;;2603599;46;20026;31
2021/08/14 10:16:00;;;;;;;9.40;8.27;;;29.70;99.90;;;;;;2603624;46;20093;31
2021/08/14 10:18:31;;;;;;;9.15;8.20;;;29.70;99.90;;;;;;2603958;46;20044;31
2021/08/14 10:21:02;;;;;;;10.32;8.23;;;29.80;99.90;;;;;;2603584;46;20822;31
2021/08/14 10:23:31;;;;;;;10.98;7.18;;;29.90;99.90;;;;;;2603490;46;20086;31
2021/08/14 10:26:07;;;;;;;12.40;7.78;;;30.00;99.90;;;;;;2603341;54;20030;31
2021/08/14 10:28:44;;;;;;;9.73;8.05;;;30.30;99.90;;;;;;2603561;47;20788;31
2021/08/14 10:31:29;;;;;;;18.05;7.57;;;30.40;99.90;;;;;;2603144;46;20833;31
2021/08/14 10:34:12;;;;;;;8.25;7.45;;;30.60;99.90;;;;;;2603298;46;21320;31
2021/08/14 10:36:44;;;;;;;9.57;8.30;;;30.60;99.90;;;;;;2603249;47;20054;31
2021/08/14 10:39:19;;;;;;;10.77;8.25;;;30.50;99.90;;;;;;2602866;46;20893;31
2021/08/14 10:41:54;;;;;;;9.70;7.95;;;30.60;99.90;;;;;;2603046;46;20887;31
2021/08/14 10:44:46;;;;;;;9.38;7.72;;;30.70;99.90;;;;;;2602867;54;20908;31
2021/08/14 10:47:32;;;;;;;7.78;7.07;;;30.80;99.90;;;;;;2603060;46;20105;31
2021/08/14 10:50:03;;;;;;;8.35;7.50;;;31.00;99.90;;;;;;2603150;54;20034;31
2021/08/14 10:52:37;;;;;;;8.25;7.32;;;30.90;99.90;;;;;;2603431;46;20897;31
2021/08/14 10:55:10;;;;;;;8.20;7.00;;;30.80;99.90;;;;;;2603437;46;20106;31
2021/08/14 10:57:48;;;;;;;7.70;6.70;;;30.90;99.90;;;;;;2603295;46;20089;31
2021/08/14 11:00:23;;;;;;;10.80;7.00;;;30.90;99.90;;;;;;2603119;54;21427;31
2021/08/14 11:03:07;;;;;;;8.40;6.75;;;30.90;99.90;;;;;;2603295;54;20026;31
2021/08/14 11:05:43;;;;;;;9.30;7.15;;;31.00;99.90;;;;;;2603058;47;20951;31
2021/08/14 11:08:28;;;;;;;10.85;6.80;;;31.10;99.70;;;;;;2603154;54;20073;31
2021/08/14 11:10:59;;;;;;;7.43;6.60;;;31.20;99.60;;;;;;2603244;46;20965;31
2021/08/14 11:13:36;;;;;;;7.67;6.87;;;31.20;99.80;;;;;;2603001;46;20873;31
2021/08/14 11:16:07;;;;;;;8.85;7.13;;;31.00;99.90;;;;;;2603336;46;20023;31
2021/08/14 11:18:55;;;;;;;9.50;6.80;;;31.10;99.90;;;;;;2602990;46;20083;31
2021/08/14 11:21:45;;;;;;;10.48;8.25;;;31.00;99.90;;;;;;2603127;54;20077;31
2021/08/14 11:24:37;;;;;;;7.82;6.32;;;31.00;99.90;;;;;;2602983;54;20050;31
2021/08/14 11:27:19;;;;;;;8.43;6.43;;;31.00;99.80;;;;;;2603052;54;20034;31
2021/08/14 11:29:52;;;;;;;7.30;6.30;;;31.10;99.90;;;;;;2603036;47;20868;31
2021/08/14 11:32:23;;;;;;;8.45;6.30;;;31.20;99.90;;;;;;2603104;46;20828;31
2021/08/14 11:34:54;;;;;;;9.73;7.03;;;31.30;99.90;;;;;;2603211;46;20098;31
2021/08/14 11:37:25;;;;;;;8.52;7.05;;;31.20;99.90;;;;;;2603164;46;20105;31
2021/08/14 11:39:57;;;;;;;8.80;6.80;;;31.30;99.90;;;;;;2603040;54;20050;31
2021/08/14 11:42:29;;;;;;;8.35;7.10;;;31.30;99.90;;;;;;2603311;46;20034;31
2021/08/14 11:45:00;;;;;;;7.95;6.45;;;31.10;99.90;;;;;;2603118;54;20068;31
2021/08/14 11:47:38;;;;;;;10.45;6.15;;;30.90;99.90;;;;;;2603113;46;20075;31
2021/08/14 11:50:09;;;;;;;9.73;6.20;;;30.80;99.90;;;;;;2602688;47;20026;31
2021/08/14 11:52:40;;;;;;;9.40;6.25;;;30.70;99.90;;;;;;2602791;54;20085;31
2021/08/14 11:55:11;;;;;;;9.40;6.23;;;30.80;99.90;;;;;;2603157;54;20063;31
2021/08/14 11:57:42;;;;;;;7.45;6.38;;;30.90;99.90;;;;;;2603189;54;20931;31
2021/08/14 12:00:20;;;;;;;8.32;6.70;;;30.90;99.90;;;;;;2603122;54;20100;31
2021/08/14 12:03:12;;;;;;;9.87;7.83;;;30.90;99.50;;;;;;2603194;47;20030;31
2021/08/14 12:05:44;;;;;;;7.70;6.50;;;30.90;99.90;;;;;;2603414;46;20030;31
2021/08/14 12:08:32;;;;;;;7.47;6.78;;;30.90;99.90;;;;;;2603322;46;20030;31
2021/08/14 12:11:05;;;;;;;8.00;7.30;;;30.90;99.90;;;;;;2603185;46;20109;31
2021/08/14 12:13:36;;;;;;;8.80;7.38;;;30.90;99.90;;;;;;2603136;46;20023;31
2021/08/14 12:16:14;;;;;;;10.80;7.05;;;30.90;99.90;;;;;;2603352;47;20844;31
2021/08/14 12:18:49;;;;;;;7.82;7.00;;;30.90;99.90;;;;;;2603037;54;20089;31
2021/08/14 12:21:21;;;;;;;9.15;7.03;;;30.90;99.90;;;;;;2602813;47;20845;31
2021/08/14 12:24:03;;;;;;;8.40;6.40;;;30.90;99.90;;;;;;2603116;46;20880;31
2021/08/14 12:32:09;;;;;;;10.40;7.55;;;31.00;99.90;;;;;;2646060;53;20387;31
2021/08/14 12:34:41;;;;;;;10.40;8.15;;;30.90;99.90;;;;;;2607247;54;20030;31
2021/08/14 12:37:14;;;;;;;8.40;7.50;;;30.90;99.90;;;;;;2607238;54;20027;31
2021/08/14 12:39:55;;;;;;;12.20;7.97;;;30.90;99.90;;;;;;2607476;46;20110;31
2021/08/14 12:42:30;;;;;;;10.35;8.50;;;30.90;99.90;;;;;;2607076;54;20032;31
2021/08/14 12:45:31;;;;;;;9.10;8.05;;;30.90;99.90;;;;;;2606387;46;20026;31
2021/08/14 12:48:08;;;;;;;11.50;8.65;;;30.80;99.90;;;;;;2607022;46;20033;31
2021/08/14 12:50:39;;;;;;;9.82;8.82;;;30.70;99.90;;;;;;2606928;54;20943;31
2021/08/14 12:53:18;;;;;;;9.50;8.60;;;30.70;99.90;;;;;;2607036;46;20093;31
2021/08/14 12:55:50;;;;;;;9.77;8.18;;;30.60;99.90;;;;;;2606878;54;20090;31
2021/08/14 12:58:21;;;;;;;9.07;7.75;;;30.70;99.90;;;;;;2607153;46;20075;31
2021/08/14 13:00:53;;;;;;;18.00;9.05;;;30.70;99.90;;;;;;2607112;54;20866;31
2021/08/14 13:03:26;;;;;;;10.02;8.25;;;30.80;99.90;;;;;;2607098;46;20038;31
2021/08/14 13:05:57;;;;;;;9.75;8.57;;;30.90;99.90;;;;;;2607059;46;20898;31
2021/08/14 13:08:28;;;;;;;10.23;8.47;;;30.80;99.90;;;;;;2607089;46;20038;31
2021/08/14 13:10:59;;;;;;;10.05;9.05;;;30.70;99.90;;;;;;2607003;46;20034;31
2021/08/14 13:13:31;;;;;;;26.25;9.05;;;30.60;99.90;;;;;;2607070;54;20074;31
2021/08/14 13:16:02;;;;;;;11.93;8.27;;;30.50;99.90;;;;;;2607191;46;20867;31
2021/08/14 13:18:33;;;;;;;9.77;8.07;;;30.50;99.90;;;;;;2607168;54;20855;31
2021/08/14 13:21:07;;;;;;;10.23;8.38;;;30.50;99.90;;;;;;2607166;46;21444;31